sensor_id;sensor_type;location;lat;lon;timestamp;temperature;humidity
39347;DHT22;26262;49.836;6.632;2023-04-03T00:01:31;5.10;99.90
39347;DHT22;26262;49.836;6.632;2023-04-03T00:03:57;5.20;99.90
39347;DHT22;26262;49.836;6.632;2023-04-03T00:06:25;5.20;99.90
39347;DHT22;26262;49.836;6.632;2023-04-03T00:08:52;5.20;99.90
39347;DHT22;26262;49.836;6.632;2023-04-03T00:11:18;5.00;99.90
39347;DHT22;26262;49.836;6.632;2023-04-03T00:13:44;5.00;99.90
39347;DHT22;26262;49.836;6.632;2023-04-03T00:16:10;5.10;99.90
39347;DHT22;26262;49.836;6.632;2023-04-03T00:18:38;5.10;99.90
39347;DHT22;26262;49.836;6.632;2023-04-03T00:21:05;5.10;99.90
39347;DHT22;26262;49.836;6.632;2023-04-03T00:23:30;5.00;99.90
39347;DHT22;26262;49.836;6.632;2023-04-03T00:25:56;5.00;99.90
39347;DHT22;26262;49.836;6.632;2023-04-03T00:28:22;5.10;99.90
39347;DHT22;26262;49.836;6.632;2023-04-03T00:30:51;5.10;99.90
39347;DHT22;26262;49.836;6.632;2023-04-03T00:33:17;5.10;99.90
39347;DHT22;26262;49.836;6.632;2023-04-03T00:35:43;4.90;99.90
39347;DHT22;26262;49.836;6.632;2023-04-03T00:38:09;5.00;99.90
39347;DHT22;26262;49.836;6.632;2023-04-03T00:40:37;4.80;99.90
39347;DHT22;26262;49.836;6.632;2023-04-03T00:43:11;4.70;99.90
39347;DHT22;26262;49.836;6.632;2023-04-03T00:45:40;4.60;99.90
39347;DHT22;26262;49.836;6.632;2023-04-03T00:48:13;4.70;99.90
39347;DHT22;26262;49.836;6.632;2023-04-03T00:50:42;4.60;99.90
39347;DHT22;26262;49.836;6.632;2023-04-03T00:53:11;4.70;99.90
39347;DHT22;26262;49.836;6.632;2023-04-03T00:55:38;4.70;99.90
39347;DHT22;26262;49.836;6.632;2023-04-03T00:58:05;4.70;99.90
39347;DHT22;26262;49.836;6.632;2023-04-03T01:00:32;4.60;99.90
39347;DHT22;26262;49.836;6.632;2023-04-03T01:02:58;4.60;99.90
39347;DHT22;26262;49.836;6.632;2023-04-03T01:05:24;4.50;99.90
39347;DHT22;26262;49.836;6.632;2023-04-03T01:07:51;4.50;99.90
39347;DHT22;26262;49.836;6.632;2023-04-03T01:10:18;4.40;99.90
39347;DHT22;26262;49.836;6.632;2023-04-03T01:12:46;4.40;99.90
39347;DHT22;26262;49.836;6.632;2023-04-03T01:15:22;4.30;99.90
39347;DHT22;26262;49.836;6.632;2023-04-03T01:17:54;4.30;99.90
39347;DHT22;26262;49.836;6.632;2023-04-03T01:22:59;4.20;99.90
39347;DHT22;26262;49.836;6.632;2023-04-03T01:25:31;4.10;99.90
39347;DHT22;26262;49.836;6.632;2023-04-03T01:27:57;3.80;99.90
39347;DHT22;26262;49.836;6.632;2023-04-03T01:30:28;3.80;99.90
39347;DHT22;26262;49.836;6.632;2023-04-03T01:32:55;3.70;99.90
39347;DHT22;26262;49.836;6.632;2023-04-03T01:35:21;3.50;99.90
39347;DHT22;26262;49.836;6.632;2023-04-03T01:37:47;3.50;99.90
39347;DHT22;26262;49.836;6.632;2023-04-03T01:40:12;3.40;99.90
39347;DHT22;26262;49.836;6.632;2023-04-03T01:42:38;3.50;99.90
39347;DHT22;26262;49.836;6.632;2023-04-03T01:45:04;3.40;99.90
39347;DHT22;26262;49.836;6.632;2023-04-03T01:47:29;3.40;99.90
39347;DHT22;26262;49.836;6.632;2023-04-03T01:49:55;3.40;99.90
39347;DHT22;26262;49.836;6.632;2023-04-03T01:52:20;3.00;99.90
39347;DHT22;26262;49.836;6.632;2023-04-03T01:54:46;2.90;99.90
39347;DHT22;26262;49.836;6.632;2023-04-03T01:57:12;3.10;99.90
39347;DHT22;26262;49.836;6.632;2023-04-03T01:59:38;2.90;99.90
39347;DHT22;26262;49.836;6.632;2023-04-03T02:02:04;3.00;99.90
39347;DHT22;26262;49.836;6.632;2023-04-03T02:04:30;3.10;99.90
39347;DHT22;26262;49.836;6.632;2023-04-03T02:06:55;3.10;99.90
39347;DHT22;26262;49.836;6.632;2023-04-03T02:09:21;3.10;99.90
39347;DHT22;26262;49.836;6.632;2023-04-03T02:11:46;3.00;99.90
39347;DHT22;26262;49.836;6.632;2023-04-03T02:14:12;2.60;99.90
39347;DHT22;26262;49.836;6.632;2023-04-03T02:16:37;2.80;99.90
39347;DHT22;26262;49.836;6.632;2023-04-03T02:19:03;2.80;99.90
39347;DHT22;26262;49.836;6.632;2023-04-03T02:21:29;2.60;99.90
39347;DHT22;26262;49.836;6.632;2023-04-03T02:23:54;2.70;99.90
39347;DHT22;26262;49.836;6.632;2023-04-03T02:26:20;2.70;99.90
39347;DHT22;26262;49.836;6.632;2023-04-03T02:28:46;2.10;99.90
39347;DHT22;26262;49.836;6.632;2023-04-03T02:31:12;2.30;99.90
39347;DHT22;26262;49.836;6.632;2023-04-03T02:33:38;2.30;99.90
39347;DHT22;26262;49.836;6.632;2023-04-03T02:36:05;2.40;99.90
39347;DHT22;26262;49.836;6.632;2023-04-03T02:38:31;2.30;99.90
39347;DHT22;26262;49.836;6.632;2023-04-03T02:41:08;2.30;99.90
39347;DHT22;26262;49.836;6.632;2023-04-03T02:43:34;2.40;99.90
39347;DHT22;26262;49.836;6.632;2023-04-03T02:45:59;2.40;99.90
39347;DHT22;26262;49.836;6.632;2023-04-03T02:48:25;2.00;99.90
39347;DHT22;26262;49.836;6.632;2023-04-03T02:50:51;2.00;99.90
39347;DHT22;26262;49.836;6.632;2023-04-03T02:53:18;2.10;99.90
39347;DHT22;26262;49.836;6.632;2023-04-03T02:55:44;2.10;99.90
39347;DHT22;26262;49.836;6.632;2023-04-03T02:58:10;1.80;99.90
39347;DHT22;26262;49.836;6.632;2023-04-03T03:00:35;2.00;99.90
39347;DHT22;26262;49.836;6.632;2023-04-03T03:03:01;2.10;99.90
39347;DHT22;26262;49.836;6.632;2023-04-03T03:05:28;2.10;99.90
39347;DHT22;26262;49.836;6.632;2023-04-03T03:07:54;2.20;99.90
39347;DHT22;26262;49.836;6.632;2023-04-03T03:10:20;2.10;99.90
39347;DHT22;26262;49.836;6.632;2023-04-03T03:12:46;2.10;99.90
39347;DHT22;26262;49.836;6.632;2023-04-03T03:15:12;2.20;99.90
39347;DHT22;26262;49.836;6.632;2023-04-03T03:17:38;2.30;99.90
39347;DHT22;26262;49.836;6.632;2023-04-03T03:20:05;2.30;99.90
39347;DHT22;26262;49.836;6.632;2023-04-03T03:22:31;2.40;99.90
39347;DHT22;26262;49.836;6.632;2023-04-03T03:24:57;2.10;99.90
39347;DHT22;26262;49.836;6.632;2023-04-03T03:27:22;1.80;99.90
39347;DHT22;26262;49.836;6.632;2023-04-03T03:29:49;1.90;99.90
39347;DHT22;26262;49.836;6.632;2023-04-03T03:32:14;1.80;99.90
39347;DHT22;26262;49.836;6.632;2023-04-03T03:34:40;1.90;99.90
39347;DHT22;26262;49.836;6.632;2023-04-03T03:37:06;2.10;99.90
39347;DHT22;26262;49.836;6.632;2023-04-03T03:39:31;1.80;99.90
39347;DHT22;26262;49.836;6.632;2023-04-03T03:41:57;1.80;99.90
39347;DHT22;26262;49.836;6.632;2023-04-03T03:44:22;1.60;99.90
39347;DHT22;26262;49.836;6.632;2023-04-03T03:46:48;1.70;99.90
39347;DHT22;26262;49.836;6.632;2023-04-03T03:49:13;1.70;99.90
39347;DHT22;26262;49.836;6.632;2023-04-03T03:51:39;1.90;99.90
39347;DHT22;26262;49.836;6.632;2023-04-03T03:54:06;2.00;99.90
39347;DHT22;26262;49.836;6.632;2023-04-03T03:56:32;1.60;99.90
39347;DHT22;26262;49.836;6.632;2023-04-03T03:58:58;1.50;99.90
39347;DHT22;26262;49.836;6.632;2023-04-03T04:01:23;1.60;99.90
39347;DHT22;26262;49.836;6.632;2023-04-03T04:03:49;1.60;99.90
39347;DHT22;26262;49.836;6.632;2023-04-03T04:06:15;1.60;99.90
39347;DHT22;26262;49.836;6.632;2023-04-03T04:08:41;1.60;99.90
39347;DHT22;26262;49.836;6.632;2023-04-03T04:11:07;1.70;99.90
39347;DHT22;26262;49.836;6.632;2023-04-03T04:13:33;1.70;99.90
39347;DHT22;26262;49.836;6.632;2023-04-03T04:15:58;1.40;99.90
39347;DHT22;26262;49.836;6.632;2023-04-03T04:18:24;1.20;99.90
39347;DHT22;26262;49.836;6.632;2023-04-03T04:20:50;1.20;99.90
39347;DHT22;26262;49.836;6.632;2023-04-03T04:23:17;1.30;99.90
39347;DHT22;26262;49.836;6.632;2023-04-03T04:25:46;1.30;99.90
39347;DHT22;26262;49.836;6.632;2023-04-03T04:28:12;1.40;99.90
39347;DHT22;26262;49.836;6.632;2023-04-03T04:30:38;1.10;99.90
39347;DHT22;26262;49.836;6.632;2023-04-03T04:33:03;1.00;99.90
39347;DHT22;26262;49.836;6.632;2023-04-03T04:35:30;1.10;99.90
39347;DHT22;26262;49.836;6.632;2023-04-03T04:37:55;1.20;99.90
39347;DHT22;26262;49.836;6.632;2023-04-03T04:40:21;1.20;99.90
39347;DHT22;26262;49.836;6.632;2023-04-03T04:42:46;1.20;99.90
39347;DHT22;26262;49.836;6.632;2023-04-03T04:45:12;1.20;99.90
39347;DHT22;26262;49.836;6.632;2023-04-03T04:47:38;1.10;99.90
39347;DHT22;26262;49.836;6.632;2023-04-03T04:50:04;1.20;99.90
39347;DHT22;26262;49.836;6.632;2023-04-03T04:52:29;0.90;99.90
39347;DHT22;26262;49.836;6.632;2023-04-03T04:54:55;0.90;99.90
39347;DHT22;26262;49.836;6.632;2023-04-03T04:57:21;1.10;99.90
39347;DHT22;26262;49.836;6.632;2023-04-03T04:59:46;1.10;99.90
39347;DHT22;26262;49.836;6.632;2023-04-03T05:02:12;1.20;99.90
39347;DHT22;26262;49.836;6.632;2023-04-03T05:04:37;1.20;99.90
39347;DHT22;26262;49.836;6.632;2023-04-03T05:07:03;1.10;99.90
39347;DHT22;26262;49.836;6.632;2023-04-03T05:09:28;1.10;99.90
39347;DHT22;26262;49.836;6.632;2023-04-03T05:11:54;1.20;99.90
39347;DHT22;26262;49.836;6.632;2023-04-03T05:14:21;1.00;99.90
39347;DHT22;26262;49.836;6.632;2023-04-03T05:16:47;0.80;99.90
39347;DHT22;26262;49.836;6.632;2023-04-03T05:19:13;0.70;99.90
39347;DHT22;26262;49.836;6.632;2023-04-03T05:21:38;0.90;99.90
39347;DHT22;26262;49.836;6.632;2023-04-03T05:24:04;0.90;99.90
39347;DHT22;26262;49.836;6.632;2023-04-03T05:26:30;0.80;99.90
39347;DHT22;26262;49.836;6.632;2023-04-03T05:28:56;0.90;99.90
39347;DHT22;26262;49.836;6.632;2023-04-03T05:31:22;1.00;99.90
39347;DHT22;26262;49.836;6.632;2023-04-03T05:33:48;1.10;99.90
39347;DHT22;26262;49.836;6.632;2023-04-03T05:36:13;0.80;99.90
39347;DHT22;26262;49.836;6.632;2023-04-03T05:38:39;0.60;99.90
39347;DHT22;26262;49.836;6.632;2023-04-03T05:41:05;0.50;99.90
39347;DHT22;26262;49.836;6.632;2023-04-03T05:43:31;0.60;99.90
39347;DHT22;26262;49.836;6.632;2023-04-03T05:45:56;0.60;99.90
39347;DHT22;26262;49.836;6.632;2023-04-03T05:48:22;0.80;99.90
39347;DHT22;26262;49.836;6.632;2023-04-03T05:50:48;0.90;99.90
39347;DHT22;26262;49.836;6.632;2023-04-03T05:53:21;1.00;99.90
39347;DHT22;26262;49.836;6.632;2023-04-03T05:55:47;1.00;99.90
39347;DHT22;26262;49.836;6.632;2023-04-03T05:58:13;1.10;99.90
39347;DHT22;26262;49.836;6.632;2023-04-03T06:00:39;1.20;99.90
39347;DHT22;26262;49.836;6.632;2023-04-03T06:03:05;1.20;99.90
39347;DHT22;26262;49.836;6.632;2023-04-03T06:05:31;1.30;99.90
39347;DHT22;26262;49.836;6.632;2023-04-03T06:07:57;1.30;99.90
39347;DHT22;26262;49.836;6.632;2023-04-03T06:10:23;1.20;99.90
39347;DHT22;26262;49.836;6.632;2023-04-03T06:12:49;1.20;99.90
39347;DHT22;26262;49.836;6.632;2023-04-03T06:15:15;1.20;99.90
39347;DHT22;26262;49.836;6.632;2023-04-03T06:17:42;1.20;99.90
39347;DHT22;26262;49.836;6.632;2023-04-03T06:20:08;1.30;99.90
39347;DHT22;26262;49.836;6.632;2023-04-03T06:22:34;1.30;99.90
39347;DHT22;26262;49.836;6.632;2023-04-03T06:25:01;1.20;99.90
39347;DHT22;26262;49.836;6.632;2023-04-03T06:27:27;1.30;99.90
39347;DHT22;26262;49.836;6.632;2023-04-03T06:29:53;1.30;99.90
39347;DHT22;26262;49.836;6.632;2023-04-03T06:32:18;1.30;99.90
39347;DHT22;26262;49.836;6.632;2023-04-03T06:34:44;1.30;99.90
39347;DHT22;26262;49.836;6.632;2023-04-03T06:37:17;1.20;99.90
39347;DHT22;26262;49.836;6.632;2023-04-03T06:39:44;1.40;99.90
39347;DHT22;26262;49.836;6.632;2023-04-03T06:42:10;1.40;99.90
39347;DHT22;26262;49.836;6.632;2023-04-03T06:44:36;1.60;99.90
39347;DHT22;26262;49.836;6.632;2023-04-03T06:47:02;1.70;99.90
39347;DHT22;26262;49.836;6.632;2023-04-03T06:49:28;1.70;99.90
39347;DHT22;26262;49.836;6.632;2023-04-03T06:51:54;2.00;99.90
39347;DHT22;26262;49.836;6.632;2023-04-03T06:54:19;2.10;99.90
39347;DHT22;26262;49.836;6.632;2023-04-03T06:56:45;2.30;99.90
39347;DHT22;26262;49.836;6.632;2023-04-03T06:59:12;2.50;99.90
39347;DHT22;26262;49.836;6.632;2023-04-03T07:01:39;2.60;99.90
39347;DHT22;26262;49.836;6.632;2023-04-03T07:04:04;2.80;99.90
39347;DHT22;26262;49.836;6.632;2023-04-03T07:06:31;3.00;99.90
39347;DHT22;26262;49.836;6.632;2023-04-03T07:08:57;3.10;99.90
39347;DHT22;26262;49.836;6.632;2023-04-03T07:11:23;3.30;99.90
39347;DHT22;26262;49.836;6.632;2023-04-03T07:13:50;3.50;99.90
39347;DHT22;26262;49.836;6.632;2023-04-03T07:16:15;3.60;99.90
39347;DHT22;26262;49.836;6.632;2023-04-03T07:18:41;3.80;99.90
39347;DHT22;26262;49.836;6.632;2023-04-03T07:21:06;4.00;99.90
39347;DHT22;26262;49.836;6.632;2023-04-03T07:23:32;4.20;99.90
39347;DHT22;26262;49.836;6.632;2023-04-03T07:25:58;4.30;99.90
39347;DHT22;26262;49.836;6.632;2023-04-03T07:28:24;4.30;99.90
39347;DHT22;26262;49.836;6.632;2023-04-03T07:30:59;4.50;99.90
39347;DHT22;26262;49.836;6.632;2023-04-03T07:33:25;4.60;99.90
39347;DHT22;26262;49.836;6.632;2023-04-03T07:35:52;4.70;99.90
39347;DHT22;26262;49.836;6.632;2023-04-03T07:38:18;4.80;99.90
39347;DHT22;26262;49.836;6.632;2023-04-03T07:40:48;4.80;99.90
39347;DHT22;26262;49.836;6.632;2023-04-03T07:43:15;5.00;99.90
39347;DHT22;26262;49.836;6.632;2023-04-03T07:45:42;5.10;99.90
39347;DHT22;26262;49.836;6.632;2023-04-03T07:48:08;5.20;99.90
39347;DHT22;26262;49.836;6.632;2023-04-03T07:50:34;5.30;99.90
39347;DHT22;26262;49.836;6.632;2023-04-03T07:52:59;5.50;99.90
39347;DHT22;26262;49.836;6.632;2023-04-03T07:55:26;5.50;99.90
39347;DHT22;26262;49.836;6.632;2023-04-03T07:57:51;5.60;99.90
39347;DHT22;26262;49.836;6.632;2023-04-03T08:00:17;5.60;99.90
39347;DHT22;26262;49.836;6.632;2023-04-03T08:02:43;5.60;99.90
39347;DHT22;26262;49.836;6.632;2023-04-03T08:05:10;5.70;99.90
39347;DHT22;26262;49.836;6.632;2023-04-03T08:07:37;5.80;99.90
39347;DHT22;26262;49.836;6.632;2023-04-03T08:10:03;5.80;99.90
39347;DHT22;26262;49.836;6.632;2023-04-03T08:12:29;5.90;99.90
39347;DHT22;26262;49.836;6.632;2023-04-03T08:14:55;6.00;99.90
39347;DHT22;26262;49.836;6.632;2023-04-03T08:17:21;6.10;99.90
39347;DHT22;26262;49.836;6.632;2023-04-03T08:19:47;6.20;99.90
39347;DHT22;26262;49.836;6.632;2023-04-03T08:22:12;6.20;99.90
39347;DHT22;26262;49.836;6.632;2023-04-03T08:24:38;6.30;99.90
39347;DHT22;26262;49.836;6.632;2023-04-03T08:27:03;6.40;99.90
39347;DHT22;26262;49.836;6.632;2023-04-03T08:29:29;6.50;99.90
39347;DHT22;26262;49.836;6.632;2023-04-03T08:31:55;6.60;99.90
39347;DHT22;26262;49.836;6.632;2023-04-03T08:34:20;6.70;99.90
39347;DHT22;26262;49.836;6.632;2023-04-03T08:36:46;6.80;99.90
39347;DHT22;26262;49.836;6.632;2023-04-03T08:39:12;6.90;99.90
39347;DHT22;26262;49.836;6.632;2023-04-03T08:41:42;7.00;99.90
39347;DHT22;26262;49.836;6.632;2023-04-03T08:49:31;7.30;99.90
39347;DHT22;26262;49.836;6.632;2023-04-03T08:51:58;7.30;99.90
39347;DHT22;26262;49.836;6.632;2023-04-03T08:54:29;7.40;99.90
39347;DHT22;26262;49.836;6.632;2023-04-03T08:56:57;7.50;99.90
39347;DHT22;26262;49.836;6.632;2023-04-03T08:59:29;7.60;99.90
39347;DHT22;26262;49.836;6.632;2023-04-03T09:02:00;7.80;99.90
39347;DHT22;26262;49.836;6.632;2023-04-03T09:04:28;7.90;99.90
39347;DHT22;26262;49.836;6.632;2023-04-03T09:07:04;8.10;99.90
39347;DHT22;26262;49.836;6.632;2023-04-03T09:09:36;8.30;99.90
39347;DHT22;26262;49.836;6.632;2023-04-03T09:12:11;8.30;99.90
39347;DHT22;26262;49.836;6.632;2023-04-03T09:14:46;8.40;99.90
39347;DHT22;26262;49.836;6.632;2023-04-03T09:22:44;8.90;99.90
39347;DHT22;26262;49.836;6.632;2023-04-03T09:25:13;8.80;99.90
39347;DHT22;26262;49.836;6.632;2023-04-03T09:27:39;8.70;99.90
39347;DHT22;26262;49.836;6.632;2023-04-03T09:30:06;8.60;99.90
39347;DHT22;26262;49.836;6.632;2023-04-03T09:32:35;8.50;99.90
39347;DHT22;26262;49.836;6.632;2023-04-03T09:35:04;8.60;99.90
39347;DHT22;26262;49.836;6.632;2023-04-03T09:37:42;8.70;99.90
39347;DHT22;26262;49.836;6.632;2023-04-03T09:42:55;8.40;99.90
39347;DHT22;26262;49.836;6.632;2023-04-03T09:45:26;9.10;99.90
39347;DHT22;26262;49.836;6.632;2023-04-03T09:55:59;9.10;99.80
39347;DHT22;26262;49.836;6.632;2023-04-03T09:58:48;9.10;99.90
39347;DHT22;26262;49.836;6.632;2023-04-03T10:01:27;8.50;99.90
39347;DHT22;26262;49.836;6.632;2023-04-03T10:04:09;9.30;99.90
39347;DHT22;26262;49.836;6.632;2023-04-03T10:06:44;9.60;99.90
39347;DHT22;26262;49.836;6.632;2023-04-03T10:12:07;9.90;98.60
39347;DHT22;26262;49.836;6.632;2023-04-03T10:20:02;8.60;99.90
39347;DHT22;26262;49.836;6.632;2023-04-03T10:22:48;8.80;99.90
39347;DHT22;26262;49.836;6.632;2023-04-03T10:25:21;9.40;99.90
39347;DHT22;26262;49.836;6.632;2023-04-03T10:27:55;9.70;99.70
39347;DHT22;26262;49.836;6.632;2023-04-03T10:47:04;12.50;95.00
39347;DHT22;26262;49.836;6.632;2023-04-03T10:52:19;12.30;93.60
39347;DHT22;26262;49.836;6.632;2023-04-03T10:55:05;12.20;94.00
39347;DHT22;26262;49.836;6.632;2023-04-03T10:57:32;11.80;92.60
39347;DHT22;26262;49.836;6.632;2023-04-03T11:00:03;11.60;94.80
39347;DHT22;26262;49.836;6.632;2023-04-03T11:02:39;11.40;94.20
39347;DHT22;26262;49.836;6.632;2023-04-03T11:05:18;11.10;94.10
39347;DHT22;26262;49.836;6.632;2023-04-03T11:07:49;11.10;94.90
39347;DHT22;26262;49.836;6.632;2023-04-03T11:10:23;11.00;94.00
39347;DHT22;26262;49.836;6.632;2023-04-03T11:12:52;10.90;95.40
39347;DHT22;26262;49.836;6.632;2023-04-03T11:15:20;10.90;94.70
39347;DHT22;26262;49.836;6.632;2023-04-03T11:20:17;11.60;94.30
39347;DHT22;26262;49.836;6.632;2023-04-03T11:22:48;12.00;93.20
39347;DHT22;26262;49.836;6.632;2023-04-03T11:25:24;12.10;93.40
39347;DHT22;26262;49.836;6.632;2023-04-03T11:27:54;11.40;91.60
39347;DHT22;26262;49.836;6.632;2023-04-03T11:30:38;11.70;93.10
39347;DHT22;26262;49.836;6.632;2023-04-03T11:36:23;13.10;92.90
39347;DHT22;26262;49.836;6.632;2023-04-03T11:38:53;12.50;91.40
39347;DHT22;26262;49.836;6.632;2023-04-03T11:41:26;12.60;90.50
39347;DHT22;26262;49.836;6.632;2023-04-03T11:44:05;12.80;91.20
39347;DHT22;26262;49.836;6.632;2023-04-03T11:46:54;13.50;91.00
39347;DHT22;26262;49.836;6.632;2023-04-03T11:49:58;13.00;90.60
39347;DHT22;26262;49.836;6.632;2023-04-03T12:16:21;14.50;84.50
39347;DHT22;26262;49.836;6.632;2023-04-03T12:38:01;13.70;79.30
39347;DHT22;26262;49.836;6.632;2023-04-03T12:43:20;13.70;85.30
39347;DHT22;26262;49.836;6.632;2023-04-03T12:51:15;14.20;80.50
39347;DHT22;26262;49.836;6.632;2023-04-03T12:53:44;14.10;82.20
39347;DHT22;26262;49.836;6.632;2023-04-03T12:56:30;14.90;83.10
39347;DHT22;26262;49.836;6.632;2023-04-03T12:59:14;15.50;79.60
39347;DHT22;26262;49.836;6.632;2023-04-03T13:01:41;15.60;78.90
39347;DHT22;26262;49.836;6.632;2023-04-03T13:04:10;15.30;75.60
39347;DHT22;26262;49.836;6.632;2023-04-03T13:06:44;15.10;75.80
39347;DHT22;26262;49.836;6.632;2023-04-03T13:14:25;15.30;77.40
39347;DHT22;26262;49.836;6.632;2023-04-03T13:16:58;15.50;79.60
39347;DHT22;26262;49.836;6.632;2023-04-03T13:19:26;15.50;71.90
39347;DHT22;26262;49.836;6.632;2023-04-03T13:21:55;15.20;74.60
39347;DHT22;26262;49.836;6.632;2023-04-03T13:24:22;15.20;74.60
39347;DHT22;26262;49.836;6.632;2023-04-03T13:26:48;15.30;77.50
39347;DHT22;26262;49.836;6.632;2023-04-03T13:29:27;14.90;74.30
39347;DHT22;26262;49.836;6.632;2023-04-03T13:31:54;14.60;74.90
39347;DHT22;26262;49.836;6.632;2023-04-03T13:34:22;14.40;78.00
39347;DHT22;26262;49.836;6.632;2023-04-03T13:41:46;15.30;75.10
39347;DHT22;26262;49.836;6.632;2023-04-03T13:46:52;15.40;74.90
39347;DHT22;26262;49.836;6.632;2023-04-03T13:51:48;14.80;72.80
39347;DHT22;26262;49.836;6.632;2023-04-03T13:54:30;15.20;73.80
39347;DHT22;26262;49.836;6.632;2023-04-03T13:56:58;15.40;73.00
39347;DHT22;26262;49.836;6.632;2023-04-03T13:59:30;15.40;73.60
39347;DHT22;26262;49.836;6.632;2023-04-03T14:07:13;16.00;71.70
39347;DHT22;26262;49.836;6.632;2023-04-03T14:09:39;15.70;72.90
39347;DHT22;26262;49.836;6.632;2023-04-03T14:12:08;15.60;69.10
39347;DHT22;26262;49.836;6.632;2023-04-03T14:14:35;14.90;72.40
39347;DHT22;26262;49.836;6.632;2023-04-03T14:17:19;14.60;73.30
39347;DHT22;26262;49.836;6.632;2023-04-03T14:19:46;14.60;74.70
39347;DHT22;26262;49.836;6.632;2023-04-03T14:22:16;14.20;75.00
39347;DHT22;26262;49.836;6.632;2023-04-03T14:24:42;14.20;74.80
39347;DHT22;26262;49.836;6.632;2023-04-03T14:27:22;14.40;77.40
39347;DHT22;26262;49.836;6.632;2023-04-03T14:29:49;14.70;75.90
39347;DHT22;26262;49.836;6.632;2023-04-03T14:32:17;14.80;77.60
39347;DHT22;26262;49.836;6.632;2023-04-03T14:34:44;14.80;76.10
39347;DHT22;26262;49.836;6.632;2023-04-03T14:37:16;14.80;80.10
39347;DHT22;26262;49.836;6.632;2023-04-03T14:39:43;15.10;79.50
39347;DHT22;26262;49.836;6.632;2023-04-03T14:42:14;15.20;74.00
39347;DHT22;26262;49.836;6.632;2023-04-03T14:44:40;15.30;75.00
39347;DHT22;26262;49.836;6.632;2023-04-03T14:47:12;14.60;75.00
39347;DHT22;26262;49.836;6.632;2023-04-03T14:49:39;14.20;73.70
39347;DHT22;26262;49.836;6.632;2023-04-03T14:52:05;13.70;76.30
39347;DHT22;26262;49.836;6.632;2023-04-03T14:54:31;13.70;77.70
39347;DHT22;26262;49.836;6.632;2023-04-03T14:56:58;13.80;78.70
39347;DHT22;26262;49.836;6.632;2023-04-03T14:59:25;13.80;77.50
39347;DHT22;26262;49.836;6.632;2023-04-03T15:01:51;13.50;76.40
39347;DHT22;26262;49.836;6.632;2023-04-03T15:04:19;13.30;77.70
39347;DHT22;26262;49.836;6.632;2023-04-03T15:06:46;13.40;79.40
39347;DHT22;26262;49.836;6.632;2023-04-03T15:09:25;13.40;76.60
39347;DHT22;26262;49.836;6.632;2023-04-03T15:11:52;13.20;79.20
39347;DHT22;26262;49.836;6.632;2023-04-03T15:14:18;13.30;77.90
39347;DHT22;26262;49.836;6.632;2023-04-03T15:16:44;13.10;75.10
39347;DHT22;26262;49.836;6.632;2023-04-03T15:19:11;13.00;78.40
39347;DHT22;26262;49.836;6.632;2023-04-03T15:21:37;12.70;77.00
39347;DHT22;26262;49.836;6.632;2023-04-03T15:24:03;12.00;76.80
39347;DHT22;26262;49.836;6.632;2023-04-03T15:26:29;11.70;78.00
39347;DHT22;26262;49.836;6.632;2023-04-03T15:28:55;11.70;79.40
39347;DHT22;26262;49.836;6.632;2023-04-03T15:31:20;11.60;78.50
39347;DHT22;26262;49.836;6.632;2023-04-03T15:33:46;11.70;79.10
39347;DHT22;26262;49.836;6.632;2023-04-03T15:36:11;11.60;79.80
39347;DHT22;26262;49.836;6.632;2023-04-03T15:38:37;11.60;77.50
39347;DHT22;26262;49.836;6.632;2023-04-03T15:41:04;11.50;77.70
39347;DHT22;26262;49.836;6.632;2023-04-03T15:43:30;11.40;77.20
39347;DHT22;26262;49.836;6.632;2023-04-03T15:45:57;10.90;78.60
39347;DHT22;26262;49.836;6.632;2023-04-03T15:48:23;10.90;78.70
39347;DHT22;26262;49.836;6.632;2023-04-03T15:50:49;10.90;81.80
39347;DHT22;26262;49.836;6.632;2023-04-03T15:53:14;10.90;80.50
39347;DHT22;26262;49.836;6.632;2023-04-03T15:55:40;10.70;77.70
39347;DHT22;26262;49.836;6.632;2023-04-03T15:58:06;10.70;79.30
39347;DHT22;26262;49.836;6.632;2023-04-03T16:00:32;10.40;78.90
39347;DHT22;26262;49.836;6.632;2023-04-03T16:03:15;10.20;79.20
39347;DHT22;26262;49.836;6.632;2023-04-03T16:05:41;10.10;81.60
39347;DHT22;26262;49.836;6.632;2023-04-03T16:08:07;9.90;79.90
39347;DHT22;26262;49.836;6.632;2023-04-03T16:10:35;9.80;81.00
39347;DHT22;26262;49.836;6.632;2023-04-03T16:13:00;9.70;81.50
39347;DHT22;26262;49.836;6.632;2023-04-03T16:15:26;9.50;82.00
39347;DHT22;26262;49.836;6.632;2023-04-03T16:17:53;9.50;81.60
39347;DHT22;26262;49.836;6.632;2023-04-03T16:20:19;9.50;82.10
39347;DHT22;26262;49.836;6.632;2023-04-03T16:22:45;9.40;80.30
39347;DHT22;26262;49.836;6.632;2023-04-03T16:25:11;9.40;81.00
39347;DHT22;26262;49.836;6.632;2023-04-03T16:27:37;9.30;81.10
39347;DHT22;26262;49.836;6.632;2023-04-03T16:30:04;9.30;83.60
39347;DHT22;26262;49.836;6.632;2023-04-03T16:32:30;9.30;82.90
39347;DHT22;26262;49.836;6.632;2023-04-03T16:34:57;9.10;83.40
39347;DHT22;26262;49.836;6.632;2023-04-03T16:37:23;9.10;83.80
39347;DHT22;26262;49.836;6.632;2023-04-03T16:39:48;9.10;81.90
39347;DHT22;26262;49.836;6.632;2023-04-03T16:42:14;8.90;82.50
39347;DHT22;26262;49.836;6.632;2023-04-03T16:44:41;9.00;82.10
39347;DHT22;26262;49.836;6.632;2023-04-03T16:47:06;8.90;81.20
39347;DHT22;26262;49.836;6.632;2023-04-03T16:49:33;8.80;81.30
39347;DHT22;26262;49.836;6.632;2023-04-03T16:51:59;8.70;81.80
39347;DHT22;26262;49.836;6.632;2023-04-03T16:54:26;8.60;83.10
39347;DHT22;26262;49.836;6.632;2023-04-03T16:56:52;8.50;82.40
39347;DHT22;26262;49.836;6.632;2023-04-03T16:59:17;8.40;81.50
39347;DHT22;26262;49.836;6.632;2023-04-03T17:01:43;8.40;81.60
39347;DHT22;26262;49.836;6.632;2023-04-03T17:04:08;8.30;81.60
39347;DHT22;26262;49.836;6.632;2023-04-03T17:06:34;8.20;81.30
39347;DHT22;26262;49.836;6.632;2023-04-03T17:09:00;8.20;82.70
39347;DHT22;26262;49.836;6.632;2023-04-03T17:11:30;8.20;81.30
39347;DHT22;26262;49.836;6.632;2023-04-03T17:13:56;8.20;83.30
39347;DHT22;26262;49.836;6.632;2023-04-03T17:16:23;8.20;81.10
39347;DHT22;26262;49.836;6.632;2023-04-03T17:18:49;8.20;81.80
39347;DHT22;26262;49.836;6.632;2023-04-03T17:21:15;8.10;82.80
39347;DHT22;26262;49.836;6.632;2023-04-03T17:23:43;8.10;82.00
39347;DHT22;26262;49.836;6.632;2023-04-03T17:26:09;8.10;83.70
39347;DHT22;26262;49.836;6.632;2023-04-03T17:28:34;8.00;82.80
39347;DHT22;26262;49.836;6.632;2023-04-03T17:31:02;8.00;81.20
39347;DHT22;26262;49.836;6.632;2023-04-03T17:33:28;7.90;83.70
39347;DHT22;26262;49.836;6.632;2023-04-03T17:35:58;7.90;84.80
39347;DHT22;26262;49.836;6.632;2023-04-03T17:38:25;7.80;82.10
39347;DHT22;26262;49.836;6.632;2023-04-03T17:40:51;7.70;81.40
39347;DHT22;26262;49.836;6.632;2023-04-03T17:43:16;7.70;83.50
39347;DHT22;26262;49.836;6.632;2023-04-03T17:45:42;7.70;85.50
39347;DHT22;26262;49.836;6.632;2023-04-03T17:48:08;7.60;84.10
39347;DHT22;26262;49.836;6.632;2023-04-03T17:50:33;7.50;85.20
39347;DHT22;26262;49.836;6.632;2023-04-03T17:52:59;7.60;83.50
39347;DHT22;26262;49.836;6.632;2023-04-03T17:55:24;7.50;84.00